Time;durP1;ratioP1;P1;durP2;ratioP2;P2;SDS_P1;SDS_P2;PMS_P1;PMS_P2;Temp;Humidity;BMP_temperature;BMP_pressure;BME280_temperature;BME280_humidity;BME280_pressure;Samples;Min_cycle;Max_cycle;Signal;HPM_P1;HPM_P2
2021/10/30 00:00:10;;;;;;;;;20.33;19.00;;;;;;;;5139452;27;8808;-77
2021/10/30 00:02:35;;;;;;;;;18.50;18.50;;;;;;;;5158565;27;8768;-77
2021/10/30 00:05:01;;;;;;;;;18.67;17.67;;;;;;;;5158393;27;8776;-77
2021/10/30 00:07:26;;;;;;;;;20.67;20.33;;;;;;;;5158282;27;8784;-75
2021/10/30 00:09:51;;;;;;;;;19.00;19.00;;;;;;;;5158397;27;8930;-77
2021/10/30 00:12:16;;;;;;;;;18.33;17.00;;;;;;;;5139646;27;8807;-76
2021/10/30 00:14:43;;;;;;;;;19.33;18.00;;;;;;;;5139156;27;8796;-75
2021/10/30 00:17:09;;;;;;;;;16.50;16.50;;;;;;;;5158238;27;8776;-75
2021/10/30 00:19:34;;;;;;;;;18.67;18.67;;;;;;;;5157980;27;8789;-74
2021/10/30 00:21:59;;;;;;;;;19.00;19.00;;;;;;;;5158185;27;8834;-77
2021/10/30 00:24:25;;;;;;;;;16.67;15.33;;;;;;;;5158170;27;8772;-77
2021/10/30 00:26:50;;;;;;;;;18.67;18.67;;;;;;;;5158139;27;8898;-77
2021/10/30 00:29:15;;;;;;;;;17.33;16.00;;;;;;;;5158113;27;8872;-76
2021/10/30 00:31:40;;;;;;;;;17.00;16.67;;;;;;;;5139379;27;8789;-77
2021/10/30 00:34:05;;;;;;;;;15.33;15.00;;;;;;;;5158107;27;8769;-77
2021/10/30 00:36:31;;;;;;;;;15.33;15.33;;;;;;;;5158010;27;8780;-74
2021/10/30 00:38:56;;;;;;;;;13.33;13.33;;;;;;;;5139339;27;8800;-75
2021/10/30 00:41:21;;;;;;;;;14.67;14.67;;;;;;;;5139384;27;8800;-74
2021/10/30 00:43:48;;;;;;;;;15.33;14.33;;;;;;;;5157751;27;8799;-74
2021/10/30 00:46:13;;;;;;;;;12.75;12.75;;;;;;;;5158023;27;8760;-75
2021/10/30 00:48:38;;;;;;;;;13.33;13.33;;;;;;;;5138989;27;8962;-74
2021/10/30 00:51:05;;;;;;;;;15.00;12.00;;;;;;;;5157953;27;8781;-75
2021/10/30 00:53:31;;;;;;;;;14.75;13.25;;;;;;;;5157797;27;9758;-75
2021/10/30 00:56:00;;;;;;;;;15.75;13.25;;;;;;;;5157633;27;8757;-75
2021/10/30 00:58:28;;;;;;;;;13.75;13.00;;;;;;;;5157860;27;8867;-75
2021/10/30 01:00:53;;;;;;;;;14.00;14.00;;;;;;;;5157574;27;9714;-76
2021/10/30 01:03:19;;;;;;;;;15.00;14.67;;;;;;;;5157776;27;8788;-76
2021/10/30 01:05:44;;;;;;;;;14.00;13.00;;;;;;;;5138938;27;8896;-77
2021/10/30 01:08:13;;;;;;;;;14.33;14.33;;;;;;;;5157671;27;8842;-77
2021/10/30 01:10:38;;;;;;;;;14.00;13.50;;;;;;;;5138833;27;9721;-75
2021/10/30 01:13:03;;;;;;;;;14.33;12.67;;;;;;;;5157552;27;8877;-75
2021/10/30 01:15:28;;;;;;;;;13.00;13.00;;;;;;;;5157326;27;9524;-75
2021/10/30 01:17:54;;;;;;;;;16.00;16.00;;;;;;;;5157566;27;8883;-75
2021/10/30 01:20:25;;;;;;;;;17.00;15.67;;;;;;;;5157411;27;8843;-75
2021/10/30 01:22:50;;;;;;;;;8.75;8.75;;;;;;;;5138722;27;8781;-76
2021/10/30 01:25:20;;;;;;;;;16.67;15.33;;;;;;;;5138752;27;8811;-76
2021/10/30 01:27:46;;;;;;;;;17.75;16.25;;;;;;;;5160013;27;8765;-76
2021/10/30 01:30:14;;;;;;;;;17.67;17.67;;;;;;;;5152776;27;8833;-77
2021/10/30 01:32:39;;;;;;;;;17.25;15.25;;;;;;;;5140083;27;8719;-76
2021/10/30 01:35:06;;;;;;;;;15.33;15.00;;;;;;;;5139936;27;8786;-76
2021/10/30 01:37:31;;;;;;;;;16.25;15.75;;;;;;;;5140035;27;8704;-74
2021/10/30 01:39:56;;;;;;;;;17.33;17.33;;;;;;;;5140064;27;8783;-75
2021/10/30 01:42:21;;;;;;;;;17.00;17.00;;;;;;;;5139950;27;8763;-75
2021/10/30 01:44:47;;;;;;;;;15.67;15.67;;;;;;;;5139760;27;8783;-76
2021/10/30 01:47:12;;;;;;;;;18.00;17.00;;;;;;;;5139909;27;8812;-75
2021/10/30 01:49:37;;;;;;;;;18.00;18.00;;;;;;;;5139739;27;8813;-75
2021/10/30 01:52:02;;;;;;;;;18.33;18.33;;;;;;;;5139880;27;8871;-74
2021/10/30 01:54:28;;;;;;;;;15.67;15.67;;;;;;;;5139524;27;8795;-75
2021/10/30 01:56:53;;;;;;;;;16.00;14.67;;;;;;;;5139611;27;8774;-75
2021/10/30 01:59:19;;;;;;;;;17.33;16.33;;;;;;;;5139689;27;8790;-76
2021/10/30 02:01:44;;;;;;;;;18.00;15.67;;;;;;;;5139547;27;8774;-76
2021/10/30 02:04:09;;;;;;;;;15.67;14.33;;;;;;;;5139638;27;8787;-76
2021/10/30 02:06:34;;;;;;;;;16.00;16.00;;;;;;;;5139522;27;8833;-75
2021/10/30 02:09:00;;;;;;;;;15.00;15.00;;;;;;;;5139425;27;8806;-77
2021/10/30 02:11:25;;;;;;;;;14.67;14.67;;;;;;;;5139462;27;8832;-76
2021/10/30 02:13:50;;;;;;;;;15.33;15.00;;;;;;;;5120621;27;8894;-77
2021/10/30 02:16:16;;;;;;;;;15.67;15.67;;;;;;;;5139486;27;8770;-75
2021/10/30 02:18:41;;;;;;;;;18.00;17.33;;;;;;;;5120812;27;8891;-75
2021/10/30 02:21:07;;;;;;;;;15.33;15.33;;;;;;;;5139430;27;8800;-75
2021/10/30 02:23:32;;;;;;;;;22.33;17.67;;;;;;;;5139247;27;8809;-76
2021/10/30 02:25:57;;;;;;;;;15.67;15.67;;;;;;;;5139130;27;8819;-74
2021/10/30 02:28:23;;;;;;;;;17.00;16.33;;;;;;;;5120524;27;8836;-77
2021/10/30 02:30:48;;;;;;;;;20.00;19.67;;;;;;;;5151639;27;8788;-76
2021/10/30 02:33:13;;;;;;;;;22.00;21.00;;;;;;;;5159802;27;9562;-76
2021/10/30 02:35:39;;;;;;;;;21.33;21.33;;;;;;;;5159826;27;8789;-74
2021/10/30 02:38:04;;;;;;;;;24.00;22.67;;;;;;;;5159688;27;8877;-75
2021/10/30 02:40:29;;;;;;;;;22.00;22.00;;;;;;;;5141063;27;8815;-76
2021/10/30 02:42:54;;;;;;;;;21.00;21.00;;;;;;;;5159839;27;8793;-75
2021/10/30 02:45:20;;;;;;;;;21.33;21.33;;;;;;;;5159455;27;8889;-77
2021/10/30 02:47:45;;;;;;;;;24.00;22.00;;;;;;;;5159644;27;8877;-76
2021/10/30 02:50:10;;;;;;;;;23.67;21.67;;;;;;;;5140773;27;8929;-77
2021/10/30 02:52:35;;;;;;;;;22.00;21.33;;;;;;;;5159249;27;8804;-76
2021/10/30 02:55:01;;;;;;;;;17.67;17.67;;;;;;;;5159641;27;8772;-75
2021/10/30 02:57:26;;;;;;;;;21.33;21.33;;;;;;;;5140593;27;8984;-77
2021/10/30 02:59:51;;;;;;;;;19.67;18.33;;;;;;;;5159265;27;8803;-77
2021/10/30 03:02:16;;;;;;;;;18.00;18.00;;;;;;;;5159542;27;8894;-75
2021/10/30 03:04:42;;;;;;;;;18.67;17.67;;;;;;;;5140764;27;8926;-74
2021/10/30 03:07:07;;;;;;;;;20.33;18.67;;;;;;;;5159384;27;8793;-75
2021/10/30 03:09:32;;;;;;;;;18.67;17.33;;;;;;;;5140599;27;8867;-75
2021/10/30 03:11:57;;;;;;;;;16.67;16.67;;;;;;;;5159396;27;8780;-75
2021/10/30 03:14:23;;;;;;;;;17.33;17.33;;;;;;;;5140483;27;8781;-75
2021/10/30 03:16:48;;;;;;;;;18.67;17.67;;;;;;;;5159360;27;8780;-75
2021/10/30 03:19:13;;;;;;;;;24.33;22.33;;;;;;;;5159097;27;8812;-75
2021/10/30 03:21:38;;;;;;;;;26.00;24.33;;;;;;;;5140338;27;8944;-75
2021/10/30 03:24:04;;;;;;;;;25.33;25.33;;;;;;;;5159160;27;8790;-76
2021/10/30 03:26:29;;;;;;;;;24.33;22.67;;;;;;;;5159050;27;8764;-77
2021/10/30 03:28:55;;;;;;;;;20.67;20.00;;;;;;;;5158811;27;8795;-78
2021/10/30 03:31:20;;;;;;;;;22.00;21.00;;;;;;;;5141185;27;8849;-78
2021/10/30 03:33:45;;;;;;;;;18.67;18.67;;;;;;;;5138196;27;8803;-78
2021/10/30 03:36:10;;;;;;;;;22.00;20.67;;;;;;;;5138030;27;8779;-77
2021/10/30 03:38:37;;;;;;;;;20.33;20.00;;;;;;;;5138032;27;8823;-78
2021/10/30 03:41:02;;;;;;;;;18.75;17.50;;;;;;;;5119616;27;8775;-75
2021/10/30 03:43:28;;;;;;;;;18.00;18.00;;;;;;;;5138185;27;8779;-75
2021/10/30 03:45:53;;;;;;;;;16.00;15.75;;;;;;;;5137844;27;8790;-76
2021/10/30 03:48:20;;;;;;;;;18.00;18.00;;;;;;;;5137908;27;8763;-77
2021/10/30 03:50:46;;;;;;;;;17.50;15.75;;;;;;;;5118624;27;9422;-77
2021/10/30 03:53:11;;;;;;;;;17.00;16.67;;;;;;;;5137565;27;8770;-77
2021/10/30 03:55:37;;;;;;;;;18.00;16.00;;;;;;;;5137943;27;8782;-78
2021/10/30 03:58:02;;;;;;;;;16.33;15.33;;;;;;;;5137590;27;8847;-78
2021/10/30 04:00:28;;;;;;;;;16.67;16.67;;;;;;;;5118999;27;8895;-78
2021/10/30 04:02:53;;;;;;;;;16.67;16.00;;;;;;;;5137768;27;8779;-76
2021/10/30 04:05:18;;;;;;;;;18.00;17.00;;;;;;;;5137715;27;8901;-75
2021/10/30 04:07:44;;;;;;;;;17.67;17.33;;;;;;;;5137666;27;8771;-75
2021/10/30 04:10:09;;;;;;;;;14.33;13.33;;;;;;;;5137568;27;8834;-76
2021/10/30 04:12:34;;;;;;;;;18.00;15.67;;;;;;;;5119279;27;8884;-75
2021/10/30 04:15:00;;;;;;;;;15.00;15.00;;;;;;;;5137562;27;8830;-75
2021/10/30 04:17:25;;;;;;;;;16.00;16.00;;;;;;;;5137617;27;8854;-75
2021/10/30 04:19:50;;;;;;;;;13.33;11.67;;;;;;;;5137502;27;8830;-76
2021/10/30 04:22:15;;;;;;;;;14.67;13.33;;;;;;;;5137366;27;8787;-75
2021/10/30 04:24:40;;;;;;;;;12.00;12.00;;;;;;;;5119050;27;8807;-73
2021/10/30 04:27:06;;;;;;;;;15.00;15.00;;;;;;;;5137613;27;9499;-74
2021/10/30 04:29:31;;;;;;;;;11.00;11.00;;;;;;;;5139014;27;8845;-74
2021/10/30 04:31:58;;;;;;;;;15.00;14.67;;;;;;;;5158237;27;9542;-74
2021/10/30 04:34:34;;;;;;;;;18.50;17.50;;;;;;;;5158078;27;9727;-75
2021/10/30 04:37:02;;;;;;;;;14.00;13.25;;;;;;;;5157999;27;8760;-76
2021/10/30 04:39:27;;;;;;;;;13.50;13.00;;;;;;;;5157949;27;8787;-76
2021/10/30 04:41:52;;;;;;;;;11.67;11.00;;;;;;;;5139200;27;8812;-75
2021/10/30 04:44:17;;;;;;;;;15.00;13.33;;;;;;;;5157772;27;8801;-76
2021/10/30 04:46:42;;;;;;;;;13.00;13.00;;;;;;;;5157881;27;8761;-75
2021/10/30 04:49:08;;;;;;;;;14.33;11.67;;;;;;;;5155794;27;9528;-74
2021/10/30 04:51:33;;;;;;;;;10.33;10.33;;;;;;;;5157733;27;8884;-74
2021/10/30 04:53:58;;;;;;;;;11.33;11.33;;;;;;;;5157763;27;9422;-74
2021/10/30 04:56:23;;;;;;;;;10.67;10.67;;;;;;;;5157811;27;8803;-74
2021/10/30 04:58:49;;;;;;;;;11.67;9.67;;;;;;;;5157634;27;8957;-74
2021/10/30 05:01:15;;;;;;;;;13.00;13.00;;;;;;;;5158391;27;8849;-74
2021/10/30 05:03:40;;;;;;;;;12.75;11.75;;;;;;;;5161429;27;8799;-73
2021/10/30 05:06:06;;;;;;;;;8.67;8.67;;;;;;;;5161503;27;8765;-73
2021/10/30 05:08:31;;;;;;;;;7.00;7.00;;;;;;;;5161022;27;8772;-74
2021/10/30 05:10:57;;;;;;;;;9.67;9.67;;;;;;;;5161207;27;8811;-73
2021/10/30 05:13:22;;;;;;;;;8.00;8.00;;;;;;;;5161324;27;8799;-75
2021/10/30 05:15:47;;;;;;;;;15.00;15.00;;;;;;;;5162511;27;8749;-76
2021/10/30 05:18:12;;;;;;;;;11.00;9.33;;;;;;;;5165153;27;8776;-76
2021/10/30 05:20:37;;;;;;;;;10.00;8.00;;;;;;;;5163746;27;8792;-77
2021/10/30 05:23:03;;;;;;;;;8.00;6.00;;;;;;;;5163218;27;8835;-77
2021/10/30 05:25:28;;;;;;;;;8.00;8.00;;;;;;;;5143653;27;8844;-76
2021/10/30 05:27:53;;;;;;;;;10.67;9.00;;;;;;;;5143231;27;8816;-77
2021/10/30 05:30:18;;;;;;;;;8.00;8.00;;;;;;;;5162050;27;8804;-76
2021/10/30 05:32:44;;;;;;;;;10.00;8.67;;;;;;;;5163721;27;8789;-74
2021/10/30 05:35:09;;;;;;;;;8.00;8.00;;;;;;;;5147849;27;8788;-75
2021/10/30 05:37:34;;;;;;;;;7.67;7.67;;;;;;;;5168419;27;8788;-75
2021/10/30 05:40:00;;;;;;;;;6.00;6.00;;;;;;;;5167720;27;8800;-75
2021/10/30 05:42:25;;;;;;;;;7.00;6.00;;;;;;;;5149991;27;8827;-74
2021/10/30 05:44:51;;;;;;;;;6.67;6.67;;;;;;;;5167779;27;8764;-75
2021/10/30 05:47:16;;;;;;;;;6.00;6.00;;;;;;;;5163350;27;8811;-74
2021/10/30 05:49:43;;;;;;;;;6.67;6.67;;;;;;;;5162730;27;8915;-74
2021/10/30 05:52:09;;;;;;;;;8.00;7.50;;;;;;;;5162843;27;8753;-76
2021/10/30 05:54:34;;;;;;;;;7.00;7.00;;;;;;;;5144403;27;8792;-76
2021/10/30 05:56:59;;;;;;;;;7.00;7.00;;;;;;;;5161891;27;8772;-78
2021/10/30 05:59:28;;;;;;;;;8.00;8.00;;;;;;;;5162855;27;9531;-74
2021/10/30 06:01:53;;;;;;;;;10.50;6.25;;;;;;;;5142363;27;8776;-77
2021/10/30 06:04:18;;;;;;;;;9.33;8.33;;;;;;;;5141876;27;8804;-76
2021/10/30 06:06:44;;;;;;;;;8.67;8.33;;;;;;;;5162963;27;8717;-74
2021/10/30 06:09:10;;;;;;;;;7.75;7.75;;;;;;;;5163960;27;8788;-75
2021/10/30 06:11:35;;;;;;;;;7.00;7.00;;;;;;;;5162370;27;8757;-75
2021/10/30 06:14:02;;;;;;;;;8.00;8.00;;;;;;;;5163270;27;8788;-74
2021/10/30 06:16:27;;;;;;;;;7.00;7.00;;;;;;;;5161708;27;8808;-74
2021/10/30 06:18:52;;;;;;;;;8.00;8.00;;;;;;;;5159984;27;8816;-74
2021/10/30 06:21:18;;;;;;;;;6.33;6.33;;;;;;;;5160259;27;8827;-75
2021/10/30 06:23:43;;;;;;;;;7.33;6.00;;;;;;;;5155043;27;8793;-75
2021/10/30 06:26:09;;;;;;;;;7.00;6.00;;;;;;;;5139229;27;8821;-75
2021/10/30 06:28:34;;;;;;;;;6.00;6.00;;;;;;;;5133185;27;8800;-74
2021/10/30 06:31:00;;;;;;;;;7.00;7.00;;;;;;;;5114493;27;8825;-75
2021/10/30 06:33:25;;;;;;;;;5.00;5.00;;;;;;;;5139233;27;8850;-75
2021/10/30 06:35:50;;;;;;;;;6.67;6.67;;;;;;;;5139087;27;8833;-74
2021/10/30 06:38:15;;;;;;;;;7.00;6.00;;;;;;;;5138999;27;8775;-73
2021/10/30 06:40:41;;;;;;;;;4.33;4.33;;;;;;;;5139112;27;8783;-73
2021/10/30 06:43:06;;;;;;;;;6.33;6.33;;;;;;;;5139161;27;8799;-73
2021/10/30 06:45:32;;;;;;;;;7.33;5.00;;;;;;;;5138855;27;8786;-73
2021/10/30 06:47:57;;;;;;;;;6.00;6.00;;;;;;;;5138832;27;8830;-74
2021/10/30 06:50:23;;;;;;;;;2.00;2.00;;;;;;;;5139040;27;8823;-74
2021/10/30 06:52:49;;;;;;;;;6.00;6.00;;;;;;;;5138647;27;8810;-76
2021/10/30 06:55:15;;;;;;;;;6.00;6.00;;;;;;;;5136736;27;8792;-76
2021/10/30 06:57:41;;;;;;;;;6.00;6.00;;;;;;;;5121100;27;8829;-76
2021/10/30 07:00:07;;;;;;;;;5.00;5.00;;;;;;;;5116323;28;8891;-76
2021/10/30 07:02:33;;;;;;;;;3.00;3.00;;;;;;;;5118072;28;8794;-75
2021/10/30 07:04:59;;;;;;;;;5.67;5.67;;;;;;;;5119371;27;8778;-77
2021/10/30 07:07:24;;;;;;;;;7.33;6.00;;;;;;;;5138632;27;8758;-74
2021/10/30 07:09:49;;;;;;;;;5.00;5.00;;;;;;;;5138493;27;10870;-74
2021/10/30 07:12:14;;;;;;;;;5.67;5.67;;;;;;;;5138643;27;8924;-75
2021/10/30 07:14:40;;;;;;;;;6.00;6.00;;;;;;;;5138454;27;8785;-76
2021/10/30 07:17:05;;;;;;;;;6.00;5.00;;;;;;;;5138534;27;8779;-76
2021/10/30 07:19:30;;;;;;;;;5.00;5.00;;;;;;;;5138388;27;8794;-75
2021/10/30 07:21:55;;;;;;;;;6.33;5.67;;;;;;;;5138440;27;8774;-75
2021/10/30 07:24:21;;;;;;;;;4.67;4.00;;;;;;;;5137349;27;8798;-74
2021/10/30 07:26:46;;;;;;;;;7.33;7.33;;;;;;;;5138537;27;8775;-74
2021/10/30 07:29:12;;;;;;;;;4.33;4.00;;;;;;;;5137981;27;9774;-75
2021/10/30 07:31:37;;;;;;;;;4.67;4.67;;;;;;;;5137996;27;8885;-75
2021/10/30 07:34:02;;;;;;;;;4.67;4.67;;;;;;;;5138253;27;8774;-75
2021/10/30 07:36:28;;;;;;;;;6.00;5.00;;;;;;;;5137950;27;8943;-75
2021/10/30 07:38:53;;;;;;;;;5.00;5.00;;;;;;;;5138122;27;8763;-76
2021/10/30 07:41:18;;;;;;;;;5.00;5.00;;;;;;;;5138001;27;8821;-77
2021/10/30 07:43:44;;;;;;;;;4.00;4.00;;;;;;;;5137404;27;8869;-77
2021/10/30 07:46:09;;;;;;;;;5.00;5.00;;;;;;;;5138111;27;8801;-76
2021/10/30 07:48:34;;;;;;;;;7.67;6.67;;;;;;;;5137945;27;8817;-75
2021/10/30 07:51:00;;;;;;;;;6.67;6.67;;;;;;;;5138026;27;8814;-76
2021/10/30 07:53:25;;;;;;;;;4.67;4.67;;;;;;;;5137715;27;8782;-77
2021/10/30 07:55:50;;;;;;;;;7.33;7.33;;;;;;;;5137898;27;8790;-75
2021/10/30 07:58:15;;;;;;;;;4.33;4.33;;;;;;;;5119073;27;8798;-75
2021/10/30 08:00:41;;;;;;;;;7.00;6.00;;;;;;;;5137341;27;8802;-76
2021/10/30 08:03:06;;;;;;;;;3.67;3.67;;;;;;;;5137929;27;8887;-75
2021/10/30 08:05:31;;;;;;;;;5.67;5.33;;;;;;;;5137819;27;8939;-77
2021/10/30 08:07:57;;;;;;;;;5.67;5.67;;;;;;;;5119011;27;9002;-75
2021/10/30 08:10:26;;;;;;;;;4.67;4.00;;;;;;;;5137682;27;8842;-78
2021/10/30 08:12:51;;;;;;;;;5.50;5.50;;;;;;;;5126558;27;8756;-78
2021/10/30 08:15:18;;;;;;;;;3.00;3.00;;;;;;;;5115736;28;8792;-77
2021/10/30 08:17:43;;;;;;;;;4.00;4.00;;;;;;;;5097109;28;8812;-78
2021/10/30 08:20:09;;;;;;;;;2.33;2.33;;;;;;;;5114522;28;8820;-77
2021/10/30 08:22:34;;;;;;;;;4.00;4.00;;;;;;;;5115538;28;8804;-76
2021/10/30 08:24:59;;;;;;;;;4.00;4.00;;;;;;;;5115227;28;8799;-76
2021/10/30 08:27:25;;;;;;;;;4.00;4.00;;;;;;;;5098328;28;9550;-74
2021/10/30 08:29:50;;;;;;;;;6.00;3.67;;;;;;;;5121036;27;8826;-76
2021/10/30 08:32:15;;;;;;;;;3.00;3.00;;;;;;;;5137382;27;8815;-75
2021/10/30 08:34:40;;;;;;;;;3.00;3.00;;;;;;;;5126188;27;8828;-75
2021/10/30 08:37:06;;;;;;;;;4.33;4.33;;;;;;;;5120091;28;8844;-76
2021/10/30 08:39:31;;;;;;;;;3.00;3.00;;;;;;;;5120425;28;8781;-74
2021/10/30 08:41:56;;;;;;;;;3.33;2.67;;;;;;;;5120403;28;8795;-76
2021/10/30 08:44:22;;;;;;;;;3.00;3.00;;;;;;;;5120200;28;8773;-76
2021/10/30 08:46:49;;;;;;;;;4.33;4.33;;;;;;;;5101906;28;9486;-75
2021/10/30 08:49:14;;;;;;;;;4.00;4.00;;;;;;;;5120146;28;8981;-75
2021/10/30 08:51:40;;;;;;;;;2.67;2.67;;;;;;;;5120134;28;8910;-76
2021/10/30 08:54:06;;;;;;;;;4.00;2.33;;;;;;;;5119974;28;8777;-76
2021/10/30 08:56:31;;;;;;;;;4.00;3.33;;;;;;;;5120102;28;8877;-75
2021/10/30 08:58:57;;;;;;;;;4.33;3.00;;;;;;;;5119906;28;8803;-76
2021/10/30 09:01:22;;;;;;;;;3.00;3.00;;;;;;;;5120148;28;8772;-75
2021/10/30 09:03:58;;;;;;;;;3.00;3.00;;;;;;;;5119929;28;9594;-77
2021/10/30 09:06:34;;;;;;;;;3.50;3.50;;;;;;;;5119819;28;8865;-74
2021/10/30 09:09:32;;;;;;;;;4.00;4.00;;;;;;;;5119860;28;8753;-77
2021/10/30 09:11:58;;;;;;;;;5.00;4.00;;;;;;;;5085285;28;8780;-75
2021/10/30 09:14:25;;;;;;;;;6.00;5.00;;;;;;;;5119578;28;8760;-77
2021/10/30 09:17:11;;;;;;;;;5.00;5.00;;;;;;;;5119782;28;8765;-77
2021/10/30 09:19:38;;;;;;;;;4.25;4.25;;;;;;;;5119393;27;8797;-76
2021/10/30 09:22:04;;;;;;;;;4.25;4.25;;;;;;;;5119684;28;8764;-75
2021/10/30 09:24:29;;;;;;;;;4.25;4.25;;;;;;;;5119775;28;8753;-76
2021/10/30 09:26:54;;;;;;;;;2.00;2.00;;;;;;;;5119692;28;8889;-76
2021/10/30 09:29:19;;;;;;;;;4.00;4.00;;;;;;;;5101042;27;8808;-76
2021/10/30 09:31:45;;;;;;;;;4.67;4.00;;;;;;;;5140220;27;8802;-76
2021/10/30 09:34:10;;;;;;;;;5.33;4.67;;;;;;;;5140185;27;8802;-76
2021/10/30 09:36:35;;;;;;;;;5.00;5.00;;;;;;;;5140100;27;8783;-75
2021/10/30 09:39:08;;;;;;;;;4.67;3.67;;;;;;;;5121409;27;9585;-78
2021/10/30 09:41:35;;;;;;;;;4.75;3.75;;;;;;;;5139978;27;8759;-77
2021/10/30 09:44:03;;;;;;;;;4.00;4.00;;;;;;;;5139690;27;8774;-77
2021/10/30 09:46:35;;;;;;;;;3.25;3.25;;;;;;;;5121232;27;9781;-79
2021/10/30 09:49:11;;;;;;;;;4.00;4.00;;;;;;;;5120748;27;8797;-77
2021/10/30 09:51:37;;;;;;;;;3.75;3.75;;;;;;;;5139846;27;8836;-76
2021/10/30 09:54:05;;;;;;;;;4.33;4.00;;;;;;;;5139757;27;8778;-77
2021/10/30 09:56:42;;;;;;;;;2.25;2.25;;;;;;;;5139820;27;8786;-76
2021/10/30 09:59:08;;;;;;;;;4.25;3.00;;;;;;;;5139540;27;8766;-75
2021/10/30 10:01:35;;;;;;;;;4.33;4.33;;;;;;;;5121310;27;8790;-74
2021/10/30 10:04:00;;;;;;;;;3.00;3.00;;;;;;;;5139826;27;8782;-75
2021/10/30 10:06:26;;;;;;;;;2.67;2.67;;;;;;;;5139786;27;8783;-74
2021/10/30 10:08:51;;;;;;;;;6.67;6.67;;;;;;;;5155660;27;8830;-75
2021/10/30 10:11:17;;;;;;;;;0.00;0.00;;;;;;;;5139541;27;8806;-75
2021/10/30 10:13:44;;;;;;;;;4.50;4.00;;;;;;;;5139491;27;8759;-75
2021/10/30 10:16:11;;;;;;;;;2.75;2.75;;;;;;;;5120995;27;8783;-75
2021/10/30 10:18:37;;;;;;;;;6.50;4.75;;;;;;;;5139339;27;9727;-75
2021/10/30 10:21:03;;;;;;;;;4.00;4.00;;;;;;;;5120879;27;8889;-74
2021/10/30 10:23:28;;;;;;;;;5.00;4.75;;;;;;;;5139271;27;8743;-75
2021/10/30 10:25:55;;;;;;;;;3.33;3.33;;;;;;;;5139403;27;8798;-76
2021/10/30 10:28:33;;;;;;;;;3.00;3.00;;;;;;;;5120551;27;8771;-76
2021/10/30 10:30:59;;;;;;;;;4.75;4.75;;;;;;;;5124634;27;8831;-76
2021/10/30 10:33:25;;;;;;;;;3.50;3.50;;;;;;;;5118570;28;8795;-76
2021/10/30 10:36:09;;;;;;;;;5.00;5.00;;;;;;;;5118533;28;8721;-76
2021/10/30 10:38:53;;;;;;;;;4.00;4.00;;;;;;;;5118330;28;8800;-77
2021/10/30 10:41:36;;;;;;;;;3.75;3.75;;;;;;;;5118603;28;8777;-74
2021/10/30 10:44:02;;;;;;;;;4.00;4.00;;;;;;;;5118222;28;8780;-75
2021/10/30 10:46:28;;;;;;;;;5.00;5.00;;;;;;;;5118569;28;8780;-74
2021/10/30 10:48:53;;;;;;;;;3.00;3.00;;;;;;;;5118399;28;8776;-74
2021/10/30 10:51:21;;;;;;;;;5.67;4.00;;;;;;;;5118419;28;8776;-76
2021/10/30 10:53:57;;;;;;;;;5.00;5.00;;;;;;;;5118113;28;8854;-74
2021/10/30 10:56:22;;;;;;;;;4.50;4.50;;;;;;;;5099978;28;8913;-75
2021/10/30 10:59:01;;;;;;;;;6.33;6.33;;;;;;;;5116886;28;8856;-75
2021/10/30 11:01:27;;;;;;;;;3.25;3.25;;;;;;;;5118124;28;8760;-77
2021/10/30 11:04:08;;;;;;;;;2.33;2.33;;;;;;;;5118178;28;8777;-74
2021/10/30 11:06:37;;;;;;;;;1.75;1.75;;;;;;;;5099822;28;8765;-76
2021/10/30 11:09:09;;;;;;;;;5.75;5.00;;;;;;;;5117940;28;8772;-76
2021/10/30 11:11:34;;;;;;;;;4.75;4.75;;;;;;;;5118001;28;8740;-77
2021/10/30 11:14:02;;;;;;;;;3.00;3.00;;;;;;;;5099298;28;8812;-77
2021/10/30 11:16:30;;;;;;;;;4.50;4.50;;;;;;;;5118050;28;8765;-75
2021/10/30 11:19:01;;;;;;;;;4.50;4.00;;;;;;;;5117835;28;8757;-75
2021/10/30 11:21:31;;;;;;;;;3.75;3.75;;;;;;;;5117983;28;8761;-75
2021/10/30 11:23:58;;;;;;;;;5.00;4.25;;;;;;;;5126552;27;8775;-75
2021/10/30 11:26:30;;;;;;;;;7.00;7.00;;;;;;;;5119486;27;8814;-75
2021/10/30 11:29:12;;;;;;;;;8.25;8.25;;;;;;;;5138094;27;8751;-75
2021/10/30 11:31:38;;;;;;;;;11.00;11.00;;;;;;;;5138055;27;8789;-76
2021/10/30 11:34:04;;;;;;;;;10.33;9.00;;;;;;;;5135674;27;8807;-75
2021/10/30 11:36:30;;;;;;;;;7.25;7.00;;;;;;;;5137821;27;8863;-76
2021/10/30 11:38:57;;;;;;;;;7.00;6.00;;;;;;;;5138148;27;8782;-76
2021/10/30 11:41:26;;;;;;;;;6.75;6.75;;;;;;;;5137905;27;8928;-76
2021/10/30 11:43:56;;;;;;;;;6.00;6.00;;;;;;;;5119318;27;8829;-76
2021/10/30 11:46:22;;;;;;;;;5.25;5.25;;;;;;;;5137530;27;8751;-76
2021/10/30 11:48:51;;;;;;;;;5.00;5.00;;;;;;;;5137966;27;8774;-75
2021/10/30 11:51:20;;;;;;;;;5.25;5.25;;;;;;;;5137675;27;8759;-75
2021/10/30 11:53:46;;;;;;;;;7.75;7.75;;;;;;;;5119226;27;8719;-75
2021/10/30 11:56:21;;;;;;;;;11.25;11.25;;;;;;;;5137816;27;8766;-75
2021/10/30 11:58:50;;;;;;;;;22.75;21.50;;;;;;;;5118086;27;8792;-76
2021/10/30 12:01:28;;;;;;;;;21.25;21.00;;;;;;;;5136293;27;8782;-74
2021/10/30 12:03:53;;;;;;;;;12.75;12.50;;;;;;;;5118729;27;8715;-74
2021/10/30 12:06:19;;;;;;;;;12.67;12.00;;;;;;;;5119070;27;9596;-75
2021/10/30 12:08:44;;;;;;;;;19.33;16.67;;;;;;;;5137729;27;8913;-75
2021/10/30 12:11:10;;;;;;;;;20.00;19.00;;;;;;;;5137269;27;8818;-75
2021/10/30 12:13:35;;;;;;;;;29.00;26.67;;;;;;;;5137483;27;8767;-77
2021/10/30 12:16:01;;;;;;;;;33.33;31.33;;;;;;;;5118727;27;11707;-77
2021/10/30 12:18:27;;;;;;;;;33.67;31.00;;;;;;;;5137252;27;8802;-78
2021/10/30 12:20:56;;;;;;;;;26.00;24.50;;;;;;;;5137229;27;10744;-77
2021/10/30 12:23:21;;;;;;;;;21.25;20.50;;;;;;;;5137252;27;8707;-77
2021/10/30 12:25:47;;;;;;;;;14.67;13.67;;;;;;;;5137307;27;9521;-76
2021/10/30 12:28:12;;;;;;;;;16.00;14.33;;;;;;;;5137297;27;8902;-76
2021/10/30 12:30:37;;;;;;;;;9.00;9.00;;;;;;;;5137249;27;8826;-75
2021/10/30 12:33:09;;;;;;;;;7.00;7.00;;;;;;;;5137351;27;8814;-75
2021/10/30 12:35:34;;;;;;;;;7.00;6.00;;;;;;;;5137490;27;8770;-75
2021/10/30 12:38:09;;;;;;;;;6.00;6.00;;;;;;;;5136954;27;8809;-75
2021/10/30 12:40:34;;;;;;;;;8.75;8.75;;;;;;;;5137263;27;8786;-75
2021/10/30 12:43:04;;;;;;;;;6.67;6.67;;;;;;;;5137255;27;8786;-75
2021/10/30 12:45:49;;;;;;;;;7.25;7.00;;;;;;;;5137302;27;8759;-75
2021/10/30 12:48:19;;;;;;;;;9.75;8.50;;;;;;;;5137149;27;8759;-75
2021/10/30 12:50:54;;;;;;;;;6.50;6.00;;;;;;;;5137055;27;8791;-74
2021/10/30 12:53:37;;;;;;;;;4.75;3.50;;;;;;;;5136941;27;9687;-75
2021/10/30 12:56:08;;;;;;;;;5.75;5.75;;;;;;;;5137131;27;8855;-76
2021/10/30 12:58:37;;;;;;;;;5.00;5.00;;;;;;;;5133254;27;8873;-74
2021/10/30 13:01:03;;;;;;;;;4.00;4.00;;;;;;;;5116451;28;8812;-75
2021/10/30 13:03:32;;;;;;;;;6.00;5.00;;;;;;;;5115871;28;8785;-75
2021/10/30 13:05:58;;;;;;;;;6.75;6.75;;;;;;;;5115128;27;8817;-77
2021/10/30 13:08:23;;;;;;;;;5.00;5.00;;;;;;;;5115488;28;8993;-78
2021/10/30 13:10:49;;;;;;;;;5.33;5.33;;;;;;;;5097022;28;8848;-77
2021/10/30 13:13:14;;;;;;;;;5.00;5.00;;;;;;;;5115431;28;8777;-74
2021/10/30 13:15:39;;;;;;;;;5.33;5.33;;;;;;;;5115298;28;8805;-75
2021/10/30 13:18:05;;;;;;;;;6.00;5.00;;;;;;;;5097117;28;8823;-75
2021/10/30 13:20:30;;;;;;;;;5.67;5.67;;;;;;;;5115678;28;8820;-76
2021/10/30 13:22:55;;;;;;;;;4.67;4.67;;;;;;;;5116989;28;8819;-75
2021/10/30 13:25:21;;;;;;;;;7.33;6.33;;;;;;;;5100481;28;8844;-76
2021/10/30 13:27:46;;;;;;;;;6.33;6.33;;;;;;;;5119699;28;8789;-77
2021/10/30 13:30:11;;;;;;;;;5.00;5.00;;;;;;;;5107450;27;8834;-78
2021/10/30 13:32:37;;;;;;;;;6.00;5.67;;;;;;;;5118441;28;8835;-76
2021/10/30 13:35:02;;;;;;;;;5.00;5.00;;;;;;;;5100590;28;9544;-76
2021/10/30 13:37:28;;;;;;;;;5.67;5.00;;;;;;;;5118762;28;8821;-76
2021/10/30 13:39:53;;;;;;;;;6.00;6.00;;;;;;;;5100051;28;9297;-77
2021/10/30 13:42:18;;;;;;;;;5.00;5.00;;;;;;;;5101425;28;8812;-76
2021/10/30 13:44:44;;;;;;;;;5.33;5.33;;;;;;;;5135346;27;8889;-78
2021/10/30 13:47:09;;;;;;;;;6.00;6.00;;;;;;;;5139921;27;8911;-76
2021/10/30 13:49:34;;;;;;;;;8.33;8.33;;;;;;;;5139848;27;8925;-77
2021/10/30 13:52:00;;;;;;;;;7.33;7.33;;;;;;;;5121210;27;8842;-78
2021/10/30 13:54:25;;;;;;;;;5.33;5.33;;;;;;;;5139686;27;8779;-81
2021/10/30 13:56:50;;;;;;;;;10.33;7.67;;;;;;;;5139837;27;8810;-80
2021/10/30 13:59:15;;;;;;;;;5.33;5.33;;;;;;;;5139532;27;8790;-78
2021/10/30 14:01:41;;;;;;;;;2.00;2.00;;;;;;;;5121544;27;9526;-77
2021/10/30 14:04:06;;;;;;;;;6.00;6.00;;;;;;;;5140083;27;8863;-77
2021/10/30 14:06:32;;;;;;;;;8.00;8.00;;;;;;;;5139688;27;8794;-76
2021/10/30 14:08:58;;;;;;;;;7.67;6.67;;;;;;;;5139680;27;8806;-76
2021/10/30 14:11:23;;;;;;;;;5.00;5.00;;;;;;;;5139625;27;8855;-76
2021/10/30 14:13:48;;;;;;;;;8.00;7.00;;;;;;;;5140186;27;8819;-77
2021/10/30 14:16:14;;;;;;;;;5.00;5.00;;;;;;;;5120996;27;8798;-78
2021/10/30 14:18:43;;;;;;;;;7.00;7.00;;;;;;;;5138987;27;8783;-77
2021/10/30 14:21:08;;;;;;;;;8.00;8.00;;;;;;;;5139294;27;8908;-77
2021/10/30 14:23:37;;;;;;;;;6.67;5.67;;;;;;;;5139367;27;8790;-75
2021/10/30 14:26:03;;;;;;;;;7.25;6.00;;;;;;;;5139233;27;8712;-77
2021/10/30 14:28:28;;;;;;;;;6.00;6.00;;;;;;;;5139228;27;8991;-74
2021/10/30 14:30:53;;;;;;;;;7.33;7.33;;;;;;;;5139026;27;8838;-74
2021/10/30 14:33:18;;;;;;;;;7.00;7.00;;;;;;;;5139039;27;8770;-75
2021/10/30 14:35:43;;;;;;;;;6.00;6.00;;;;;;;;5139348;27;8881;-74
2021/10/30 14:38:09;;;;;;;;;6.00;4.33;;;;;;;;5120487;27;8956;-75
2021/10/30 14:40:34;;;;;;;;;7.00;3.67;;;;;;;;5139300;27;8802;-75